Flight Track Log - Related Links

Times and Time Zones

All times are in EDT time to prevent confusion due to time zone crossing. See the N412GJ flight status page for this flight to view local times or setup timezone preferences in your user account.

Time Position Orientation Groundspeed Altitude Reporting Facility
EDT Latitude Longitude Course Direction KTS MPH feet Rate Location/Type
Sun 11:12:18 AM 33.6908 -83.1525 333° Northwest 195 224 5,700  Level Atlanta Center
Sun 11:13:18 AM 33.7475 -83.1894 332° Northwest 208 239 7,800 2,000 Climbing Atlanta Center
Sun 11:14:18 AM 33.8103 -83.2336 330° Northwest 237 273 9,700 2,100 Climbing Atlanta Center
Sun 11:15:18 AM 33.8922 -83.2881 331° Northwest 279 321 12,000 2,150 Climbing Atlanta Center
Sun 11:16:00 AM 34.0531 -83.5263 312° West  Level FlightAware Approximate
Sun 11:16:18 AM 33.9675 -83.3225 339° North 295 339 14,000  Level Atlanta Center
Sun 11:17:18 AM 34.0656 -83.3267 358° North 323 372 14,000  Level Atlanta Center
Sun 11:18:18 AM 34.1722 -83.3383 355° North 368 423 14,000 100 Level Atlanta Center
Sun 11:19:18 AM 34.2828 -83.3500 355° North 394 453 14,200 850 Climbing Atlanta Center
Sun 11:20:18 AM 34.3892 -83.3567 357° North 388 447 15,700 1,650 Climbing Atlanta Center
Sun 11:21:18 AM 34.4958 -83.3633 357° North 382 440 17,500 1,350 Climbing Atlanta Center
Sun 11:22:18 AM 34.5958 -83.3725 356° North 382 440 18,400 1,250 Climbing Atlanta Center
Sun 11:23:18 AM 34.6694 -83.4378 324° Northwest 342 394 20,000 1,750 Climbing Atlanta Center
Sun 11:24:18 AM 34.7094 -83.5358 296° West 330 380 21,900 1,950 Climbing Atlanta Center
Sun 11:25:18 AM 34.7264 -83.6394 281° West 305 351 23,900 2,000 Climbing Atlanta Center
Sun 11:26:18 AM 34.7436 -83.7431 281° West 310 357 25,900 2,000 Climbing Atlanta Center
Sun 11:27:18 AM 34.7603 -83.8442 281° West 317 365 27,900 1,900 Climbing Atlanta Center
Sun 11:28:18 AM 34.7772 -83.9578 280° West 312 359 29,700 1,400 Climbing Atlanta Center
Sun 11:29:18 AM 34.7919 -84.0617 280° West 312 359 30,700 1,000 Climbing Atlanta Center
Sun 11:30:18 AM 34.8106 -84.1728 282° West 318 366 31,700 1,000 Climbing Atlanta Center
Sun 11:31:18 AM 34.8292 -84.2717 283° West 334 384 32,700 650 Climbing Atlanta Center
Sun 11:32:18 AM 34.8478 -84.3881 281° West 347 399 33,000 450 Climbing Atlanta Center
Sun 11:33:18 AM 34.8681 -84.5222 280° West 363 418 33,600 800 Climbing Atlanta Center
Sun 11:34:18 AM 34.8842 -84.6542 279° West 375 432 34,600 850 Climbing Atlanta Center
Sun 11:35:18 AM 34.8983 -84.7531 280° West 380 437 35,300 700 Climbing Atlanta Center
Sun 11:36:18 AM 34.9475 -84.8775 296° West 375 432 36,000 350 Climbing Atlanta Center
Sun 11:37:18 AM 35.0178 -84.9797 310° West 378 435 36,000  Level Atlanta Center
Sun 11:38:18 AM 35.0900 -85.0844 310° West 395 455 36,000  Level Atlanta Center
Sun 11:39:18 AM 35.1619 -85.1947 309° West 407 468 36,000  Level Atlanta Center
Sun 11:40:18 AM 35.2381 -85.3078 310° West 418 481 36,000  Level Atlanta Center
Sun 11:41:31 AM 35.3269 -85.4378 310° West 406 467 36,000  Level Memphis Center
Sun 11:42:31 AM 35.3981 -85.5508 308° West 411 473 36,000  Level Memphis Center
Sun 11:43:31 AM 35.4711 -85.6586 310° West 417 480 36,000  Level Memphis Center
Sun 11:44:31 AM 35.5442 -85.7694 309° West 417 480 36,000  Level Memphis Center
Sun 11:45:31 AM 35.6236 -85.8925 308° West 422 486 36,000  Level Memphis Center
Sun 11:46:31 AM 35.6861 -86.0094 303° West 422 486 36,000  Level Memphis Center
Sun 11:47:31 AM 35.7467 -86.1317 301° West 417 480 36,000  Level Memphis Center
Sun 11:48:31 AM 35.8069 -86.2514 302° West 412 474 36,000  Level Memphis Center
Sun 11:49:31 AM 35.8653 -86.3739 300° West 412 474 36,000  Level Memphis Center
Sun 11:50:31 AM 35.9253 -86.4939 302° West 412 474 36,000  Level Memphis Center
Sun 11:51:31 AM 35.9853 -86.6144 302° West 412 474 36,000  Level Memphis Center
Sun 11:52:31 AM 36.0431 -86.7375 300° West 412 474 36,000  Level Memphis Center
Sun 11:53:31 AM 36.0964 -86.8481 301° West 412 474 36,000  Level Memphis Center
Sun 11:54:31 AM 36.1539 -86.9717 300° West 412 474 36,000  Level Memphis Center
Sun 11:55:31 AM 36.2178 -87.0950 303° West 417 480 36,000  Level Memphis Center
Sun 11:56:31 AM 36.2858 -87.2286 302° West 417 480 36,000  Level Memphis Center
Sun 11:57:31 AM 36.3450 -87.3503 301° West 417 480 36,000  Level Memphis Center
Sun 11:58:31 AM 36.4022 -87.4717 300° West 411 473 36,000  Level Memphis Center
Sun 11:59:31 AM 36.4611 -87.5908 302° West 411 473 36,000  Level Memphis Center
Sun 12:00:31 PM 36.5203 -87.7156 301° West 416 479 36,000  Level Memphis Center
Sun 12:01:31 PM 36.5792 -87.8400 301° West 411 473 36,000  Level Memphis Center
Sun 12:02:31 PM 36.6378 -87.9625 301° West 411 473 36,000  Level Memphis Center
Sun 12:03:31 PM 36.6900 -88.0722 301° West 411 473 36,000  Level Memphis Center
Sun 12:04:31 PM 36.7461 -88.1922 300° West 411 473 36,000  Level Memphis Center
Sun 12:05:31 PM 36.8067 -88.3150 302° West 411 473 36,000 -100 Level Memphis Center
Sun 12:06:31 PM 36.8714 -88.4533 300° West 416 479 35,800 -650 Descending Memphis Center
Sun 12:07:31 PM 36.9275 -88.5767 300° West 416 479 34,700 -900 Descending Memphis Center
Sun 12:08:31 PM 36.9853 -88.7025 300° West 416 479 34,000 -350 Descending Memphis Center
Sun 12:09:31 PM 37.0433 -88.8286 300° West 416 479 34,000  Level Memphis Center
Sun 12:10:31 PM 37.1031 -88.9575 300° West 416 479 34,000 -850 Level Memphis Center
Sun 12:11:31 PM 37.1608 -89.0894 299° West 421 484 32,300 -1,648 Descending Memphis Center
Sun 12:12:02 PM 37.1864 -89.1403 302° West 425 489 31,500 -1,826 Descending Kansas City Center
Sun 12:13:03 PM 37.2453 -89.2708 300° West 428 493 29,500 -1,951 Descending Kansas City Center
Sun 12:14:05 PM 37.3053 -89.4053 299° West 438 504 27,500 -1,694 Descending Kansas City Center
Sun 12:15:07 PM 37.3778 -89.5644 300° West 439 505 26,000 -1,161 Descending Kansas City Center
Sun 12:16:09 PM 37.4539 -89.6856 308° West 447 514 25,100 -1,152 Descending Kansas City Center
Sun 12:17:12 PM 37.5458 -89.7892 318° Northwest 445 512 23,600 -1,728 Descending Kansas City Center
Sun 12:18:14 PM 37.6306 -89.8839 318° Northwest 442 509 21,500 -2,129 Descending Kansas City Center
Sun 12:19:16 PM 37.7186 -89.9831 318° Northwest 431 496 19,200 -2,274 Descending Kansas City Center
Sun 12:20:18 PM 37.8156 -90.0939 318° Northwest 399 459 16,800 -2,177 Descending Kansas City Center
Sun 12:21:20 PM 37.8972 -90.1811 320° Northwest 387 445 14,700 -1,984 Descending Kansas City Center
Sun 12:22:22 PM 37.9747 -90.2694 318° Northwest 378 435 12,700 -1,306 Descending Kansas City Center
Sun 12:23:24 PM 38.0706 -90.3139 340° North 373 429 12,000 -339 Descending Kansas City Center
Sun 12:24:26 PM 38.1617 -90.3672 335° Northwest 367 422 12,000 -677 Level Kansas City Center
Sun 12:25:28 PM 38.2361 -90.4289 327° Northwest 330 380 10,600 -1,645 Descending Kansas City Center
Sun 12:26:30 PM 38.3156 -90.4947 327° Northwest 292 336 8,600 -1,645 Descending Kansas City Center
Sun 12:27:32 PM 38.3811 -90.5503 326° Northwest 285 328 7,200 -1,355 Descending Kansas City Center
Sun 12:28:34 PM 38.4458 -90.6042 327° Northwest 279 321 5,800 -1,355 Descending Kansas City Center
Sun 12:29:36 PM 38.5097 -90.6572 327° Northwest 274 315 4,400 -1,306 Descending Kansas City Center
Sun 12:30:38 PM 38.5706 -90.7092 326° Northwest 267 307 3,100 -1,161 Descending Kansas City Center
Sun 12:31:40 PM 38.6264 -90.7122 358° North 222 255 2,000 -1,161 Descending Kansas City Center
Sun 12:32:42 PM 38.6550 -90.6769 44° Northeast 172 198 700 -1,258 Descending Kansas City Center
Sun 12:34:00 PM 38.6500 -90.6500 57° Northeast  Level FlightAware Approximate
Sun 12:41:00 PM 38.6621 -90.6521 57° Northeast  Level Estimated
Sun 12:42:00 PM 38.6621 -90.6521 57° Northeast  Level Estimated

Login

Don't have an account? Register now (free) for customized features, flight alerts, and more!